Time;durP1;ratioP1;P1;durP2;ratioP2;P2;SDS_P1;SDS_P2;PMS_P1;PMS_P2;Temp;Humidity;BMP_temperature;BMP_pressure;BME280_temperature;BME280_humidity;BME280_pressure;Samples;Min_cycle;Max_cycle;Signal;HPM_P1;HPM_P2
2023/06/03 00:02:27;;;;;;;6.80;0.90;;;;;;;7.14;52.32;100887.03;106781;1273;22535;-54
2023/06/03 00:05:00;;;;;;;5.50;0.80;;;;;;;7.07;52.58;100888.48;110252;1278;23155;-56
2023/06/03 00:07:31;;;;;;;5.70;0.80;;;;;;;7.01;52.72;100890.48;110269;1264;22184;-52
2023/06/03 00:10:03;;;;;;;3.80;0.50;;;;;;;6.98;52.92;100890.10;110241;1274;22224;-55
2023/06/03 00:12:34;;;;;;;9.20;0.70;;;;;;;6.96;53.09;100890.80;110235;1274;22187;-52
2023/06/03 00:15:06;;;;;;;4.70;0.60;;;;;;;6.92;53.12;100884.87;110239;1276;22290;-52
2023/06/03 00:17:37;;;;;;;5.50;0.80;;;;;;;6.88;53.21;100886.88;110262;1270;22753;-54
2023/06/03 00:20:10;;;;;;;5.50;0.90;;;;;;;6.84;53.36;100889.86;110282;1276;22148;-54
2023/06/03 00:22:41;;;;;;;6.70;0.60;;;;;;;6.78;53.54;100888.83;110260;1266;23000;-53
2023/06/03 00:25:14;;;;;;;4.50;0.70;;;;;;;6.74;53.71;100891.73;110248;1270;22220;-54
2023/06/03 00:27:48;;;;;;;8.00;0.80;;;;;;;6.67;53.90;100898.70;110256;1264;22249;-54
2023/06/03 00:30:19;;;;;;;5.20;0.80;;;;;;;6.62;54.05;100902.66;110258;1270;22144;-53
2023/06/03 00:32:50;;;;;;;5.30;0.70;;;;;;;6.56;54.19;100901.14;110174;1266;23030;-53
2023/06/03 00:35:21;;;;;;;6.10;0.80;;;;;;;6.50;54.27;100902.48;110254;1267;22418;-53
2023/06/03 00:37:52;;;;;;;4.90;0.70;;;;;;;6.45;54.40;100903.41;110202;1277;22186;-53
2023/06/03 00:40:24;;;;;;;6.00;0.80;;;;;;;6.39;54.57;100903.48;110264;1264;22183;-53
2023/06/03 00:42:55;;;;;;;5.20;0.70;;;;;;;6.33;54.71;100906.42;110198;1273;22460;-52
2023/06/03 00:45:26;;;;;;;4.80;0.90;;;;;;;6.28;54.92;100910.73;110258;1276;22222;-53
2023/06/03 00:47:57;;;;;;;7.90;1.20;;;;;;;6.24;55.06;100912.00;108176;1270;2710588;-52
2023/06/03 00:50:28;;;;;;;5.00;0.80;;;;;;;6.24;55.20;100911.63;110267;1264;22829;-52
2023/06/03 00:53:00;;;;;;;3.20;0.50;;;;;;;6.22;55.40;100911.68;110276;1278;22144;-52
2023/06/03 00:55:31;;;;;;;4.90;0.70;;;;;;;6.19;55.54;100919.19;110278;1271;22333;-54
2023/06/03 00:58:02;;;;;;;4.40;0.60;;;;;;;6.16;55.80;100923.47;110215;1273;22193;-52
2023/06/03 01:00:33;;;;;;;6.30;0.80;;;;;;;6.10;56.00;100926.53;110243;1272;22343;-53
2023/06/03 01:03:04;;;;;;;7.60;0.80;;;;;;;6.06;56.15;100923.38;110212;1271;23074;-52
2023/06/03 01:05:35;;;;;;;4.00;0.60;;;;;;;6.02;56.29;100923.31;110202;1271;23199;-52
2023/06/03 01:08:13;;;;;;;4.10;0.70;;;;;;;5.99;56.41;100921.34;110239;1278;22667;-53
2023/06/03 01:10:51;;;;;;;4.80;0.60;;;;;;;5.93;56.62;100919.34;110215;1278;22201;-52
2023/06/03 01:13:27;;;;;;;4.20;0.70;;;;;;;5.90;56.79;100920.36;110206;1272;22122;-52
2023/06/03 01:16:04;;;;;;;4.60;0.70;;;;;;;5.87;56.90;100928.11;110181;1270;22134;-52
2023/06/03 01:18:36;;;;;;;7.10;0.60;;;;;;;5.87;57.00;100923.92;110209;1267;22286;-52
2023/06/03 01:21:08;;;;;;;9.10;0.70;;;;;;;5.91;57.12;100930.30;110230;1271;22236;-54
2023/06/03 01:23:43;;;;;;;9.50;0.70;;;;;;;5.95;57.13;100930.29;110224;1270;22960;-53
2023/06/03 01:26:16;;;;;;;4.60;0.90;;;;;;;6.00;57.15;100928.77;110240;1276;22626;-55
2023/06/03 01:28:49;;;;;;;8.50;0.90;;;;;;;6.03;57.17;100933.52;110218;1278;22969;-53
2023/06/03 01:31:20;;;;;;;4.90;0.70;;;;;;;6.04;57.35;100933.76;110241;1267;22183;-52
2023/06/03 01:33:51;;;;;;;5.50;0.70;;;;;;;6.03;57.45;100939.52;110141;1270;22190;-52
2023/06/03 01:36:22;;;;;;;3.40;0.60;;;;;;;6.01;57.48;100940.69;110204;1270;22894;-52
2023/06/03 01:38:54;;;;;;;5.00;1.10;;;;;;;5.97;57.64;100936.83;110218;1267;22234;-54
2023/06/03 01:41:26;;;;;;;3.60;0.60;;;;;;;5.93;57.71;100938.25;110228;1270;22331;-52
2023/06/03 01:43:57;;;;;;;6.90;0.80;;;;;;;5.90;57.93;100939.53;110184;1278;22991;-52
2023/06/03 01:46:28;;;;;;;4.30;0.60;;;;;;;5.84;58.08;100939.64;110226;1261;22891;-53
2023/06/03 01:48:59;;;;;;;7.20;1.00;;;;;;;5.76;58.32;100938.78;110222;1271;22167;-52
2023/06/03 01:51:30;;;;;;;6.40;1.20;;;;;;;5.72;58.39;100940.69;110178;1271;24166;-52
2023/06/03 01:54:01;;;;;;;5.40;0.80;;;;;;;5.66;58.47;100941.73;110195;1264;22212;-52
2023/06/03 01:56:32;;;;;;;11.20;0.70;;;;;;;5.63;58.65;100942.70;110196;1271;22202;-52
2023/06/03 01:59:03;;;;;;;5.60;0.70;;;;;;;5.57;58.81;100944.10;110227;1271;22251;-52
2023/06/03 02:01:36;;;;;;;3.80;0.70;;;;;;;5.52;58.97;100949.66;110202;1271;22218;-52
2023/06/03 02:04:07;;;;;;;4.20;0.70;;;;;;;5.47;59.03;100950.88;110224;1270;22145;-52
2023/06/03 02:06:37;;;;;;;8.40;0.90;;;;;;;5.40;59.26;100947.77;110200;1271;22220;-55
2023/06/03 02:09:11;;;;;;;4.40;0.80;;;;;;;5.36;59.31;100949.05;110238;1267;23000;-53
2023/06/03 02:11:44;;;;;;;5.70;1.10;;;;;;;5.30;59.42;100946.95;110240;1270;22935;-53
2023/06/03 02:14:15;;;;;;;5.50;0.70;;;;;;;5.24;59.61;100947.79;110253;1272;22153;-54
2023/06/03 02:16:48;;;;;;;3.90;0.70;;;;;;;5.19;59.72;100953.75;110231;1278;22215;-51
2023/06/03 02:19:20;;;;;;;5.80;0.60;;;;;;;5.14;59.81;100953.59;110218;1264;22269;-54
2023/06/03 02:21:50;;;;;;;5.60;0.80;;;;;;;5.10;59.90;100956.92;110206;1264;22143;-53
2023/06/03 02:24:23;;;;;;;7.50;1.10;;;;;;;5.08;60.04;100959.33;110204;1271;22291;-53
2023/06/03 02:26:54;;;;;;;9.30;0.80;;;;;;;5.10;60.22;100961.66;110238;1267;22192;-55
2023/06/03 02:29:26;;;;;;;2.80;0.50;;;;;;;5.11;60.37;100965.13;110241;1272;22360;-55
2023/06/03 02:31:58;;;;;;;8.90;0.90;;;;;;;5.10;60.53;100968.78;110165;1278;22175;-53
2023/06/03 02:34:29;;;;;;;4.70;0.70;;;;;;;5.05;60.62;100972.83;110206;1267;22266;-53
2023/06/03 02:37:00;;;;;;;5.20;0.70;;;;;;;5.00;60.86;100976.95;110238;1270;22175;-52
2023/06/03 02:39:31;;;;;;;4.20;0.70;;;;;;;4.93;60.88;100974.15;110194;1267;22128;-52
2023/06/03 02:42:02;;;;;;;4.20;0.50;;;;;;;4.87;60.97;100972.51;110223;1270;22279;-53
2023/06/03 02:44:32;;;;;;;5.60;0.70;;;;;;;4.83;61.08;100972.52;110225;1271;23111;-54
2023/06/03 02:47:04;;;;;;;3.60;0.70;;;;;;;4.79;61.11;100973.21;110224;1278;22766;-52
2023/06/03 02:49:36;;;;;;;9.80;1.00;;;;;;;4.76;61.15;100973.73;110245;1262;22155;-52
2023/06/03 02:52:08;;;;;;;5.50;0.90;;;;;;;4.73;61.34;100976.16;110221;1270;22901;-53
2023/06/03 02:54:38;;;;;;;5.00;0.80;;;;;;;4.70;61.45;100973.98;110217;1263;22383;-52
2023/06/03 02:57:09;;;;;;;5.60;0.90;;;;;;;4.69;61.58;100973.24;110235;1267;22177;-52
2023/06/03 02:59:42;;;;;;;8.80;1.00;;;;;;;4.64;61.80;100974.42;110215;1266;22360;-52
2023/06/03 03:02:12;;;;;;;5.60;0.80;;;;;;;4.62;61.95;100971.47;110218;1278;22342;-52
2023/06/03 03:04:44;;;;;;;4.80;0.70;;;;;;;4.61;62.09;100977.24;110223;1271;22268;-52
2023/06/03 03:07:17;;;;;;;5.10;0.60;;;;;;;4.61;62.20;100980.79;110203;1270;22151;-52
2023/06/03 03:09:48;;;;;;;4.30;0.80;;;;;;;4.62;62.38;100980.31;110227;1261;22842;-52
2023/06/03 03:12:19;;;;;;;6.30;0.80;;;;;;;4.62;62.52;100981.81;110202;1271;22945;-52
2023/06/03 03:14:50;;;;;;;6.70;0.70;;;;;;;4.64;62.66;100984.14;110223;1271;22255;-52
2023/06/03 03:17:20;;;;;;;7.10;1.80;;;;;;;4.63;62.91;100987.40;110214;1271;22516;-53
2023/06/03 03:19:51;;;;;;;7.00;1.00;;;;;;;4.62;63.02;100990.11;110169;1264;22559;-52
2023/06/03 03:22:22;;;;;;;6.30;0.60;;;;;;;4.63;63.20;100993.17;110217;1271;23269;-52
2023/06/03 03:24:53;;;;;;;3.10;0.70;;;;;;;4.63;63.25;100996.02;110154;1270;22270;-52
2023/06/03 03:27:24;;;;;;;5.20;0.80;;;;;;;4.62;63.41;100999.02;110223;1261;22217;-54
2023/06/03 03:29:58;;;;;;;5.50;0.90;;;;;;;4.63;63.40;100998.08;110139;1266;22255;-52
2023/06/03 03:32:29;;;;;;;7.10;0.90;;;;;;;4.67;63.47;100995.00;110209;1264;22194;-52
2023/06/03 03:35:12;;;;;;;4.70;0.80;;;;;;;4.70;63.70;101000.63;110245;1278;22242;-52
2023/06/03 03:37:44;;;;;;;7.00;0.90;;;;;;;4.72;63.89;100998.15;110222;1276;22271;-54
2023/06/03 03:40:20;;;;;;;6.80;1.30;;;;;;;4.73;63.96;100998.61;110227;1271;22243;-52
2023/06/03 03:42:52;;;;;;;7.70;1.10;;;;;;;4.73;64.08;100999.48;110143;1271;22248;-52
2023/06/03 03:45:29;;;;;;;8.90;0.90;;;;;;;4.74;64.31;100996.30;106662;1277;22651;-53
2023/06/03 03:48:03;;;;;;;10.80;1.80;;;;;;;4.75;64.41;100999.90;110154;1264;22513;-52
2023/06/03 03:50:45;;;;;;;7.70;1.10;;;;;;;4.77;64.64;101002.09;110204;1262;22170;-52
2023/06/03 03:53:18;;;;;;;7.70;1.30;;;;;;;4.81;64.79;101000.46;110155;1270;23036;-54
2023/06/03 03:55:50;;;;;;;8.20;1.20;;;;;;;4.85;64.88;100999.27;110128;1271;22245;-61
2023/06/03 03:58:26;;;;;;;3.50;0.80;;;;;;;4.92;64.98;100999.61;110195;1274;22354;-54
2023/06/03 04:00:59;;;;;;;6.10;1.00;;;;;;;5.05;65.35;101003.51;110205;1265;22370;-52
2023/06/03 04:03:35;;;;;;;5.60;0.80;;;;;;;5.14;65.29;101008.39;110195;1270;22185;-57
2023/06/03 04:06:08;;;;;;;6.20;0.90;;;;;;;5.24;65.38;101007.50;110157;1264;22199;-53
2023/06/03 04:08:45;;;;;;;6.30;0.90;;;;;;;5.35;65.26;101010.92;110230;1271;22853;-53
2023/06/03 04:11:25;;;;;;;4.40;1.10;;;;;;;5.46;65.49;101017.10;110201;1263;22900;-54
2023/06/03 04:13:55;;;;;;;;;;;;;;;5.59;65.53;101016.93;110203;1278;22391;-53
2023/06/03 04:17:00;;;;;;;6.90;0.60;;;;;;;5.71;65.43;101017.39;110222;1271;22174;-52
2023/06/03 04:19:36;;;;;;;4.90;0.60;;;;;;;5.87;65.52;101017.73;110187;1271;22391;-52
2023/06/03 04:22:08;;;;;;;5.80;0.70;;;;;;;6.02;65.40;101023.83;110234;1271;22188;-55
2023/06/03 04:24:42;;;;;;;5.70;0.50;;;;;;;6.16;65.53;101025.00;110217;1267;22255;-55
2023/06/03 04:27:14;;;;;;;3.80;0.80;;;;;;;6.29;65.41;101030.83;110151;1263;22390;-54
2023/06/03 04:29:45;;;;;;;6.90;0.70;;;;;;;6.40;65.48;101030.72;110175;1262;22208;-52
2023/06/03 04:32:16;;;;;;;5.60;0.70;;;;;;;6.52;65.46;101032.42;110126;1271;22319;-53
2023/06/03 04:34:55;;;;;;;4.10;0.70;;;;;;;6.66;65.45;101037.23;110217;1264;22157;-54
2023/06/03 04:37:27;;;;;;;4.40;0.70;;;;;;;6.82;65.33;101034.88;110209;1271;22955;-52
2023/06/03 04:39:58;;;;;;;6.30;0.60;;;;;;;6.98;65.26;101032.95;110177;1270;22333;-53
2023/06/03 04:42:30;;;;;;;5.10;0.40;;;;;;;7.16;64.80;101032.70;110103;1271;22204;-56
2023/06/03 04:45:01;;;;;;;3.60;0.50;;;;;;;7.36;64.56;101035.11;110213;1267;22317;-54
2023/06/03 04:47:32;;;;;;;3.00;0.30;;;;;;;7.54;64.27;101035.98;110155;1264;23191;-56
2023/06/03 04:50:04;;;;;;;4.30;0.50;;;;;;;7.70;64.14;101037.19;110107;1271;22325;-55
2023/06/03 04:52:35;;;;;;;4.20;0.60;;;;;;;7.88;63.87;101034.52;110025;1264;22278;-57
2023/06/03 04:55:10;;;;;;;5.10;0.60;;;;;;;8.04;63.58;101029.84;110109;1271;22347;-52
2023/06/03 04:57:41;;;;;;;2.60;0.40;;;;;;;8.20;63.30;101032.07;110193;1261;22271;-53
2023/06/03 05:00:16;;;;;;;6.80;0.60;;;;;;;8.33;63.13;101031.36;110127;1267;23595;-55
2023/06/03 05:02:54;;;;;;;6.30;0.60;;;;;;;8.44;63.16;101036.58;110186;1261;22247;-57
2023/06/03 05:05:31;;;;;;;6.20;0.70;;;;;;;8.59;63.15;101036.02;110117;1270;22354;-55
2023/06/03 05:08:03;;;;;;;4.40;0.60;;;;;;;8.76;62.90;101030.39;110018;1276;22936;-54
2023/06/03 05:10:35;;;;;;;3.20;0.50;;;;;;;8.91;62.46;101028.19;110143;1264;22362;-54
2023/06/03 05:13:06;;;;;;;3.70;0.50;;;;;;;9.04;62.18;101032.13;110174;1271;22165;-53
2023/06/03 05:15:39;;;;;;;3.40;0.50;;;;;;;9.16;62.22;101032.21;110213;1271;22964;-55
2023/06/03 05:18:10;;;;;;;3.50;0.60;;;;;;;9.26;61.87;101037.20;110145;1262;22234;-54
2023/06/03 05:20:41;;;;;;;7.50;0.50;;;;;;;9.36;61.56;101036.39;110166;1262;22223;-62
2023/06/03 05:23:12;;;;;;;4.50;0.50;;;;;;;9.42;61.39;101034.14;110164;1278;22343;-52
2023/06/03 05:25:54;;;;;;;2.80;0.50;;;;;;;9.55;61.44;101040.23;110173;1272;22317;-54
2023/06/03 05:28:31;;;;;;;4.00;0.50;;;;;;;9.70;61.07;101034.90;110067;1271;22284;-52
2023/06/03 05:31:02;;;;;;;4.20;0.60;;;;;;;9.81;60.87;101035.67;110231;1267;22863;-53
2023/06/03 05:33:36;;;;;;;2.50;0.50;;;;;;;9.93;60.74;101040.03;110183;1267;22204;-53
2023/06/03 05:36:08;;;;;;;4.20;0.30;;;;;;;10.03;60.53;101042.03;110240;1272;22153;-54
2023/06/03 05:38:38;;;;;;;4.70;0.60;;;;;;;10.11;60.29;101042.30;110206;1263;22294;-52
2023/06/03 05:41:09;;;;;;;1.90;0.50;;;;;;;10.20;60.47;101045.95;110132;1276;22209;-53
2023/06/03 05:43:41;;;;;;;2.80;0.40;;;;;;;10.31;60.38;101048.06;110180;1271;23479;-53
2023/06/03 05:46:12;;;;;;;5.40;0.50;;;;;;;10.44;59.88;101048.67;110149;1271;22224;-54
2023/06/03 05:48:43;;;;;;;5.00;0.60;;;;;;;10.56;59.77;101045.77;110163;1267;22702;-54
2023/06/03 05:51:14;;;;;;;3.50;0.40;;;;;;;10.71;59.68;101050.79;110170;1276;22302;-53
2023/06/03 05:53:46;;;;;;;3.40;0.60;;;;;;;10.81;59.15;101048.71;110190;1273;22848;-53
2023/06/03 05:56:18;;;;;;;3.50;0.30;;;;;;;10.87;59.09;101046.61;110167;1264;22366;-56
2023/06/03 05:58:49;;;;;;;4.80;0.40;;;;;;;10.98;59.11;101048.95;110232;1278;22889;-54
2023/06/03 06:01:20;;;;;;;5.70;0.50;;;;;;;11.10;58.56;101045.96;110197;1265;22265;-57
2023/06/03 06:03:51;;;;;;;2.20;0.40;;;;;;;11.17;58.31;101047.98;110145;1269;22200;-53
2023/06/03 06:06:21;;;;;;;2.00;0.40;;;;;;;11.19;58.19;101048.05;110182;1271;22368;-55
2023/06/03 06:08:52;;;;;;;2.70;0.40;;;;;;;11.25;58.26;101050.60;110141;1274;23009;-52
2023/06/03 06:11:23;;;;;;;4.30;0.50;;;;;;;11.38;58.41;101048.43;110201;1271;22320;-55
2023/06/03 06:13:54;;;;;;;3.30;0.60;;;;;;;11.49;57.86;101050.99;110165;1278;22218;-53
2023/06/03 06:16:25;;;;;;;3.90;0.50;;;;;;;11.57;57.32;101051.45;110210;1271;23443;-53
2023/06/03 06:18:57;;;;;;;2.10;0.30;;;;;;;11.63;57.14;101056.22;110194;1271;22215;-52
2023/06/03 06:21:28;;;;;;;3.50;0.40;;;;;;;11.69;56.60;101053.40;110147;1261;22973;-54
2023/06/03 06:23:59;;;;;;;3.20;0.40;;;;;;;11.77;56.85;101051.86;110101;1266;22225;-54
2023/06/03 06:26:30;;;;;;;3.10;0.40;;;;;;;11.88;56.36;101056.00;110227;1270;22334;-56
2023/06/03 06:29:03;;;;;;;2.30;0.40;;;;;;;11.96;55.92;101049.21;110238;1271;22177;-54
2023/06/03 06:31:34;;;;;;;2.80;0.30;;;;;;;12.00;55.73;101048.15;110197;1271;22322;-53
2023/06/03 06:34:05;;;;;;;4.00;0.40;;;;;;;12.05;55.10;101049.34;110226;1271;22369;-54
2023/06/03 06:36:47;;;;;;;6.50;0.40;;;;;;;11.99;54.56;101056.52;110201;1267;22268;-58
2023/06/03 06:39:43;;;;;;;2.50;0.30;;;;;;;11.96;55.08;101054.51;110141;1271;22263;-61
2023/06/03 06:42:16;;;;;;;4.40;0.70;;;;;;;12.06;55.06;101056.29;110041;1271;22186;-56
2023/06/03 06:44:50;;;;;;;2.70;0.50;;;;;;;12.13;54.83;101056.92;110181;1267;22158;-54
2023/06/03 06:47:24;;;;;;;2.60;0.40;;;;;;;12.18;54.50;101054.06;110124;1264;23104;-53
2023/06/03 06:49:57;;;;;;;4.70;0.50;;;;;;;12.16;52.86;101058.59;110152;1277;22238;-53
2023/06/03 06:52:30;;;;;;;2.70;0.30;;;;;;;12.16;53.48;101056.91;110164;1265;22172;-55
2023/06/03 06:55:01;;;;;;;2.70;0.20;;;;;;;12.22;53.11;101059.73;110110;1268;22346;-55
2023/06/03 06:57:35;;;;;;;1.90;0.40;;;;;;;12.22;53.04;101054.70;110121;1270;22310;-56
2023/06/03 07:00:07;;;;;;;3.70;0.40;;;;;;;12.29;53.85;101060.83;110182;1271;22172;-53
2023/06/03 07:02:40;;;;;;;6.80;0.40;;;;;;;12.42;52.92;101062.19;110162;1262;22241;-58
2023/06/03 07:05:11;;;;;;;6.50;0.40;;;;;;;12.53;52.46;101060.23;110138;1271;22169;-56
2023/06/03 07:07:42;;;;;;;3.40;0.60;;;;;;;12.63;51.99;101055.04;110196;1271;23141;-56
2023/06/03 07:10:13;;;;;;;3.10;0.30;;;;;;;12.70;51.92;101062.42;109586;1267;22829;-56
2023/06/03 07:12:44;;;;;;;1.90;0.40;;;;;;;12.78;51.08;101063.61;106574;1268;24207;-52
2023/06/03 07:15:15;;;;;;;2.60;0.50;;;;;;;12.86;50.86;101059.91;106522;1271;24273;-55
2023/06/03 07:17:51;;;;;;;2.70;0.60;;;;;;;12.91;50.56;101051.42;106361;1256;24230;-56
2023/06/03 07:20:27;;;;;;;1.00;0.30;;;;;;;12.91;50.84;101050.56;106469;1264;24148;-57
2023/06/03 07:22:58;;;;;;;3.10;0.30;;;;;;;12.95;49.74;101051.91;110075;1271;22200;-55
2023/06/03 07:25:38;;;;;;;5.40;0.30;;;;;;;12.95;49.21;101057.58;110151;1265;22224;-55
2023/06/03 07:28:11;;;;;;;2.70;0.50;;;;;;;12.95;46.97;101054.77;110160;1265;22157;-54
2023/06/03 07:30:43;;;;;;;5.20;0.20;;;;;;;12.89;47.43;101058.77;110100;1264;22353;-58
2023/06/03 07:33:34;;;;;;;2.40;0.40;;;;;;;12.87;46.50;101059.02;110102;1267;22200;-56
2023/06/03 07:36:06;;;;;;;1.20;0.20;;;;;;;12.91;47.19;101057.33;110107;1267;22896;-56
2023/06/03 07:39:00;;;;;;;2.70;0.20;;;;;;;12.99;47.23;101057.05;110164;1264;22384;-56
2023/06/03 07:41:50;;;;;;;1.90;0.40;;;;;;;13.11;47.14;101062.29;110142;1271;22354;-54
2023/06/03 07:44:40;;;;;;;2.30;0.30;;;;;;;13.17;46.34;101068.33;110128;1270;22327;-52
2023/06/03 07:47:14;;;;;;;3.10;0.30;;;;;;;13.18;43.89;101071.30;110149;1275;22315;-56
2023/06/03 07:49:47;;;;;;;3.90;0.30;;;;;;;13.21;45.13;101070.90;110107;1274;22213;-55
2023/06/03 07:52:19;;;;;;;3.50;0.40;;;;;;;13.27;44.58;101072.93;110116;1271;22326;-53
2023/06/03 07:54:51;;;;;;;3.10;0.30;;;;;;;13.30;44.58;101070.45;110147;1267;22207;-52
2023/06/03 07:57:22;;;;;;;1.90;0.40;;;;;;;13.37;44.81;101074.09;110144;1267;22202;-55
2023/06/03 07:59:55;;;;;;;1.80;0.30;;;;;;;13.45;45.09;101073.61;110174;1267;22203;-58
2023/06/03 08:02:26;;;;;;;9.80;0.30;;;;;;;13.53;44.74;101073.78;110179;1270;22366;-55
2023/06/03 08:05:00;;;;;;;4.40;0.30;;;;;;;13.68;44.59;101070.92;110140;1267;22214;-53
2023/06/03 08:07:31;;;;;;;4.20;0.40;;;;;;;13.79;44.42;101068.42;110120;1267;22323;-56
2023/06/03 08:10:03;;;;;;;6.00;0.40;;;;;;;13.90;43.95;101073.38;110126;1267;22212;-57
2023/06/03 08:12:46;;;;;;;3.90;0.40;;;;;;;13.96;42.96;101073.64;110121;1267;22838;-54
2023/06/03 08:15:25;;;;;;;3.30;0.30;;;;;;;13.98;42.75;101072.91;110154;1267;23399;-55
2023/06/03 08:17:57;;;;;;;2.30;0.40;;;;;;;14.02;42.85;101069.30;110134;1267;22234;-56
2023/06/03 08:20:29;;;;;;;4.40;0.40;;;;;;;14.09;42.74;101075.98;110108;1270;22550;-65
2023/06/03 08:23:00;;;;;;;2.30;0.30;;;;;;;14.13;42.53;101072.02;110089;1271;22286;-56
2023/06/03 08:25:31;;;;;;;1.90;0.30;;;;;;;14.14;42.17;101076.02;110093;1267;23680;-56
2023/06/03 08:28:02;;;;;;;3.00;0.40;;;;;;;14.17;41.71;101071.37;110122;1271;22194;-53
2023/06/03 08:30:33;;;;;;;3.40;0.30;;;;;;;14.16;41.62;101073.03;110105;1274;22299;-53
2023/06/03 08:33:04;;;;;;;4.40;0.30;;;;;;;14.16;41.45;101074.25;110096;1274;22158;-53
2023/06/03 08:35:35;;;;;;;2.70;0.30;;;;;;;14.17;41.14;101078.77;110091;1263;22307;-54
2023/06/03 08:38:06;;;;;;;3.90;0.20;;;;;;;14.20;41.15;101074.34;110106;1267;22144;-56
2023/06/03 08:40:46;;;;;;;1.00;0.20;;;;;;;14.23;41.09;101078.12;110108;1264;22865;-55
2023/06/03 08:43:17;;;;;;;2.80;0.30;;;;;;;14.21;40.49;101076.65;110116;1267;22203;-54
2023/06/03 08:46:01;;;;;;;4.10;0.50;;;;;;;14.20;41.04;101073.77;110130;1276;22234;-54
2023/06/03 08:48:47;;;;;;;2.60;0.50;;;;;;;14.28;41.09;101070.61;107661;1267;25236;-53
2023/06/03 08:51:23;;;;;;;3.40;0.50;;;;;;;14.36;41.10;101073.81;110076;1271;22228;-54
2023/06/03 08:53:55;;;;;;;4.70;0.40;;;;;;;14.38;41.00;101066.95;110113;1265;22618;-55
2023/06/03 08:56:28;;;;;;;1.40;0.30;;;;;;;14.44;40.36;101063.23;110088;1264;22282;-54
2023/06/03 08:59:02;;;;;;;2.90;0.40;;;;;;;14.42;39.54;101062.03;110088;1267;22260;-54
2023/06/03 09:01:37;;;;;;;3.10;0.40;;;;;;;14.41;40.25;101060.84;110080;1266;23028;-56
2023/06/03 09:04:09;;;;;;;6.30;0.40;;;;;;;14.46;40.42;101061.67;110117;1256;22971;-54
2023/06/03 09:06:43;;;;;;;2.00;0.40;;;;;;;14.53;40.53;101065.12;110133;1271;23255;-54
2023/06/03 09:09:15;;;;;;;1.10;0.30;;;;;;;14.61;40.62;101064.98;110096;1271;22295;-54
2023/06/03 09:11:46;;;;;;;3.80;0.40;;;;;;;14.70;40.40;101068.70;110093;1271;22915;-54
2023/06/03 09:14:19;;;;;;;2.20;0.30;;;;;;;14.73;40.57;101063.44;110132;1271;22915;-55
2023/06/03 09:16:51;;;;;;;4.60;0.40;;;;;;;14.81;40.33;101059.92;106940;1272;22540;-55
2023/06/03 09:19:22;;;;;;;6.40;0.50;;;;;;;14.88;40.46;101052.31;110039;1272;22223;-57
2023/06/03 09:21:57;;;;;;;4.10;0.50;;;;;;;14.94;40.63;101047.08;110114;1267;22165;-58
2023/06/03 09:24:28;;;;;;;2.80;0.40;;;;;;;15.02;40.39;101052.10;110089;1267;23135;-58
2023/06/03 09:26:59;;;;;;;3.40;0.50;;;;;;;15.11;40.17;101051.20;110119;1271;22300;-56
2023/06/03 09:29:31;;;;;;;6.00;0.40;;;;;;;15.17;39.73;101047.95;110043;1271;22351;-60
2023/06/03 09:32:03;;;;;;;7.00;0.70;;;;;;;15.24;40.10;101041.75;110099;1277;22950;-59
2023/06/03 09:34:34;;;;;;;8.70;0.40;;;;;;;15.31;39.51;101040.42;110109;1265;22339;-59
2023/06/03 09:37:10;;;;;;;2.90;0.40;;;;;;;15.37;39.51;101034.80;110098;1268;22243;-58
2023/06/03 09:39:41;;;;;;;3.70;0.40;;;;;;;15.40;38.23;101037.14;110115;1273;22377;-59
2023/06/03 09:42:13;;;;;;;4.60;0.60;;;;;;;15.40;38.76;101035.70;107097;1277;25355;-57
2023/06/03 09:44:49;;;;;;;6.70;0.60;;;;;;;15.46;38.94;101039.09;106094;1272;22675;-57
2023/06/03 09:47:19;;;;;;;1.80;0.30;;;;;;;15.52;38.60;101039.61;106886;1271;22519;-61
2023/06/03 09:50:05;;;;;;;7.70;0.70;;;;;;;15.60;38.82;101035.36;105989;1278;22527;-56
2023/06/03 09:52:37;;;;;;;2.30;0.50;;;;;;;15.68;38.68;101033.20;110097;1265;22329;-59
2023/06/03 09:55:10;;;;;;;7.40;0.60;;;;;;;15.74;38.60;101037.05;110106;1266;22607;-60
2023/06/03 09:57:41;;;;;;;4.10;0.60;;;;;;;15.79;38.46;101037.77;110134;1263;22325;-59
2023/06/03 10:00:14;;;;;;;7.20;1.10;;;;;;;15.87;38.18;101032.02;110084;1268;22280;-60
2023/06/03 10:02:46;;;;;;;2.30;0.40;;;;;;;15.98;38.29;101039.40;110070;1271;22191;-58
2023/06/03 10:05:30;;;;;;;2.40;0.50;;;;;;;16.04;38.07;101039.98;110087;1270;22147;-58
2023/06/03 10:08:02;;;;;;;8.00;0.60;;;;;;;16.08;37.90;101037.76;110118;1274;22292;-56
2023/06/03 10:10:34;;;;;;;3.80;0.50;;;;;;;16.16;37.99;101035.36;110115;1274;22254;-57
2023/06/03 10:13:21;;;;;;;7.40;0.70;;;;;;;16.19;38.07;101029.20;110139;1268;22144;-55
2023/06/03 10:15:53;;;;;;;4.10;0.50;;;;;;;16.32;38.06;101029.04;110097;1266;23015;-58
2023/06/03 10:18:38;;;;;;;2.60;0.50;;;;;;;16.37;37.25;101029.96;110049;1273;22267;-59
2023/06/03 10:21:12;;;;;;;6.60;0.50;;;;;;;16.31;37.11;101024.23;110100;1271;23009;-55
2023/06/03 10:23:44;;;;;;;2.20;0.30;;;;;;;16.33;37.53;101017.16;110152;1265;22199;-58
2023/06/03 10:26:16;;;;;;;3.20;0.50;;;;;;;16.42;37.30;101020.63;110143;1272;22305;-60
2023/06/03 10:28:48;;;;;;;9.60;0.50;;;;;;;16.49;37.35;101015.87;110133;1278;22403;-57
2023/06/03 10:31:21;;;;;;;3.10;0.40;;;;;;;16.55;37.29;101018.54;110088;1263;22132;-57
2023/06/03 10:33:54;;;;;;;1.90;0.30;;;;;;;16.58;36.50;101014.67;110131;1261;22197;-57
2023/06/03 10:36:26;;;;;;;3.60;0.50;;;;;;;16.52;35.94;101010.52;110088;1271;22279;-56
2023/06/03 10:39:01;;;;;;;4.40;0.60;;;;;;;16.49;36.61;101005.77;110110;1263;22901;-57
2023/06/03 10:41:33;;;;;;;6.90;0.40;;;;;;;16.58;36.45;101005.95;110106;1265;22311;-58
2023/06/03 10:44:04;;;;;;;1.00;0.20;;;;;;;16.56;36.02;101008.01;110117;1272;23047;-56
2023/06/03 10:46:37;;;;;;;5.00;0.60;;;;;;;16.53;36.39;101001.31;110107;1273;22375;-57
2023/06/03 10:49:10;;;;;;;2.70;0.40;;;;;;;16.62;36.25;100999.07;110117;1268;23536;-55
2023/06/03 10:51:51;;;;;;;4.10;0.60;;;;;;;16.64;35.74;100995.13;110092;1271;22276;-57
2023/06/03 10:54:33;;;;;;;3.20;0.40;;;;;;;16.69;35.97;100990.45;110096;1271;22272;-58
2023/06/03 10:57:06;;;;;;;2.10;0.40;;;;;;;16.76;35.99;100988.30;108082;1273;22677;-56
2023/06/03 10:59:46;;;;;;;3.30;0.40;;;;;;;16.84;35.96;100993.50;110098;1271;23516;-57
2023/06/03 11:02:17;;;;;;;3.50;0.60;;;;;;;16.82;35.18;100991.86;110004;1268;22320;-56
2023/06/03 11:04:48;;;;;;;2.70;0.50;;;;;;;16.73;35.31;100994.84;110102;1274;22847;-56
2023/06/03 11:07:47;;;;;;;2.70;0.40;;;;;;;16.74;35.67;100996.07;110166;1266;22192;-59
2023/06/03 11:10:44;;;;;;;2.00;0.40;;;;;;;16.81;35.57;100988.83;110088;1268;22962;-58
2023/06/03 11:13:44;;;;;;;2.50;0.40;;;;;;;16.94;35.53;100990.65;110116;1271;22234;-57
2023/06/03 11:16:15;;;;;;;2.20;0.30;;;;;;;16.99;35.31;100985.54;110113;1271;22228;-58
2023/06/03 11:18:46;;;;;;;3.10;0.40;;;;;;;17.03;34.96;100983.82;110141;1277;22891;-59
2023/06/03 11:21:50;;;;;;;2.50;0.20;;;;;;;17.08;34.88;100983.88;110118;1271;22329;-59
2023/06/03 11:24:51;;;;;;;1.50;0.30;;;;;;;17.13;34.67;100979.96;110083;1263;22937;-59
2023/06/03 11:27:26;;;;;;;2.80;0.30;;;;;;;17.14;34.61;100990.33;110108;1271;22204;-57
2023/06/03 11:29:59;;;;;;;7.80;2.30;;;;;;;17.16;34.20;100987.35;110077;1273;22177;-57
2023/06/03 11:32:31;;;;;;;3.60;0.50;;;;;;;17.19;34.30;100979.05;110083;1270;22342;-57
2023/06/03 11:35:29;;;;;;;3.60;0.30;;;;;;;17.16;33.68;100973.65;110120;1273;23018;-59
2023/06/03 11:38:00;;;;;;;2.80;0.30;;;;;;;17.15;33.65;100969.80;110102;1276;22341;-58
2023/06/03 11:40:51;;;;;;;2.10;0.40;;;;;;;17.19;33.92;100967.30;110136;1274;22340;-59
2023/06/03 11:43:22;;;;;;;3.50;0.50;;;;;;;17.25;33.92;100971.27;110116;1268;22138;-58
2023/06/03 11:45:53;;;;;;;3.90;0.30;;;;;;;17.29;34.11;100974.22;110119;1274;22199;-58
2023/06/03 11:48:36;;;;;;;4.60;0.40;;;;;;;17.31;33.63;100968.42;110126;1268;22207;-58
2023/06/03 11:51:07;;;;;;;2.10;0.30;;;;;;;17.33;33.75;100967.77;109991;1271;22193;-58
2023/06/03 11:53:39;;;;;;;4.40;0.40;;;;;;;17.37;33.72;100966.09;110143;1270;22402;-60